createdAt,value
2023-02-11T00:00:43.103Z,40.40
2023-02-11T00:03:09.921Z,41.70
2023-02-11T00:05:36.732Z,43.40
2023-02-11T00:08:03.696Z,39.90
2023-02-11T00:10:30.273Z,41.80
2023-02-11T00:12:57.422Z,41.30
2023-02-11T00:15:24.073Z,39.20
2023-02-11T00:17:50.600Z,42.80
2023-02-11T00:20:17.268Z,38.50
2023-02-11T00:22:43.881Z,40.80
2023-02-11T00:25:10.484Z,42.30
2023-02-11T00:27:37.773Z,42.20
2023-02-11T00:30:05.319Z,41.50
2023-02-11T00:32:32.214Z,44.60
2023-02-11T00:34:58.923Z,42.60
2023-02-11T00:37:25.622Z,42.10
2023-02-11T00:39:52.386Z,44.00
2023-02-11T00:42:19.094Z,44.20
2023-02-11T00:44:45.896Z,43.60
2023-02-11T00:47:12.713Z,43.40
2023-02-11T00:49:40.466Z,45.70
2023-02-11T00:52:07.184Z,42.90
2023-02-11T00:54:34.058Z,45.70
2023-02-11T00:57:00.633Z,40.70
2023-02-11T00:59:27.446Z,43.30
2023-02-11T01:01:54.253Z,47.20
2023-02-11T01:04:20.868Z,42.20
2023-02-11T01:06:47.896Z,43.10
2023-02-11T01:09:14.489Z,44.80
2023-02-11T01:11:41.198Z,47.80
2023-02-11T01:14:08.349Z,47.80
2023-02-11T01:16:35.341Z,39.90
2023-02-11T01:19:02.191Z,45.20
2023-02-11T01:21:29.021Z,46.50
2023-02-11T01:23:55.936Z,44.00
2023-02-11T01:26:22.645Z,47.00
2023-02-11T01:28:49.310Z,46.20
2023-02-11T01:31:16.317Z,46.80
2023-02-11T01:33:43.349Z,44.80
2023-02-11T01:36:11.939Z,45.80
2023-02-11T01:38:40.038Z,45.00
2023-02-11T01:41:10.517Z,50.60
2023-02-11T01:43:47.969Z,45.80
2023-02-11T01:46:31.491Z,49.40
2023-02-11T01:49:04.625Z,50.90
2023-02-11T01:51:39.422Z,50.40
2023-02-11T01:54:28.265Z,54.30
2023-02-11T01:57:30.139Z,56.60
2023-02-11T02:00:10.331Z,54.30
2023-02-11T02:02:51.966Z,52.40
2023-02-11T02:06:01.773Z,56.90
2023-02-11T02:08:50.198Z,55.40
2023-02-11T02:11:17.437Z,54.70
2023-02-11T02:13:44.710Z,52.80
2023-02-11T02:16:14.107Z,55.70
2023-02-11T02:19:18.242Z,59.40
2023-02-11T02:21:54.076Z,56.30
2023-02-11T02:24:58.915Z,51.00
2023-02-11T02:27:59.716Z,56.60
2023-02-11T02:30:50.976Z,58.70
2023-02-11T02:33:25.373Z,54.40
2023-02-11T02:35:55.538Z,59.50
2023-02-11T02:38:31.500Z,56.20
2023-02-11T02:41:10.291Z,50.70
2023-02-11T02:43:41.034Z,49.70
2023-02-11T02:46:16.236Z,52.30
2023-02-11T02:48:43.946Z,52.10
2023-02-11T02:51:22.636Z,54.70
2023-02-11T02:54:02.127Z,49.80
2023-02-11T02:56:46.194Z,52.70
2023-02-11T02:59:26.491Z,52.40
2023-02-11T03:02:11.040Z,51.00
2023-02-11T03:04:52.024Z,51.80
2023-02-11T03:07:34.152Z,55.70
2023-02-11T03:10:08.150Z,51.20
2023-02-11T03:12:35.837Z,50.20
2023-02-11T03:15:06.858Z,55.10
2023-02-11T03:17:36.100Z,48.60
2023-02-11T03:20:04.935Z,52.10
2023-02-11T03:22:48.678Z,44.80
2023-02-11T03:25:16.085Z,51.90
2023-02-11T03:27:57.661Z,53.10
2023-02-11T03:30:44.912Z,53.20
2023-02-11T03:33:22.390Z,50.60
2023-02-11T03:36:00.370Z,51.70
2023-02-11T03:38:33.673Z,50.70
2023-02-11T03:41:03.145Z,53.30
2023-02-11T03:43:42.300Z,49.20
2023-02-11T03:46:11.248Z,52.80
2023-02-11T03:48:44.868Z,52.40
2023-02-11T03:51:13.629Z,51.50
2023-02-11T03:53:43.460Z,49.20
2023-02-11T03:56:16.901Z,50.00
2023-02-11T03:58:47.938Z,50.80
2023-02-11T04:01:15.168Z,50.50
2023-02-11T04:03:42.521Z,49.50
2023-02-11T04:06:09.628Z,50.20
2023-02-11T04:08:36.812Z,51.00
2023-02-11T04:11:03.649Z,49.70
2023-02-11T04:13:30.718Z,44.80
2023-02-11T04:15:57.574Z,48.90
2023-02-11T04:18:24.565Z,48.80
2023-02-11T04:20:51.475Z,48.10
2023-02-11T04:23:18.693Z,41.10
2023-02-11T04:25:45.656Z,50.40
2023-02-11T04:28:12.657Z,48.80
2023-02-11T04:30:39.442Z,52.50
2023-02-11T04:33:06.217Z,50.20
2023-02-11T04:35:33.375Z,54.20
2023-02-11T04:38:00.122Z,50.70
2023-02-11T04:40:27.429Z,48.50
2023-02-11T04:42:54.236Z,52.80
2023-02-11T04:45:20.965Z,54.50
2023-02-11T04:47:47.600Z,52.40
2023-02-11T04:50:15.034Z,47.00
2023-02-11T04:52:41.672Z,48.00
2023-02-11T04:55:08.976Z,41.10
2023-02-11T04:57:36.208Z,49.10
2023-02-11T05:00:04.048Z,48.30
2023-02-11T05:02:30.742Z,46.10
2023-02-11T05:04:57.538Z,45.20
2023-02-11T05:33:41.425Z,39.30
2023-02-11T05:36:12.024Z,37.40
2023-02-11T05:38:38.903Z,37.10
2023-02-11T05:41:06.934Z,33.60
2023-02-11T05:43:35.320Z,33.30
2023-02-11T05:46:03.450Z,35.10
2023-02-11T05:48:30.392Z,32.90
2023-02-11T05:50:57.542Z,37.00
2023-02-11T05:53:24.422Z,32.40
2023-02-11T05:55:51.717Z,35.60
2023-02-11T05:58:18.934Z,32.40
2023-02-11T06:00:46.254Z,34.40
2023-02-11T06:03:13.123Z,37.30
2023-02-11T06:05:40.059Z,34.70
2023-02-11T06:08:07.417Z,35.70
2023-02-11T06:10:34.703Z,33.90
2023-02-11T06:13:02.102Z,36.00
2023-02-11T06:15:29.038Z,38.20
2023-02-11T06:17:56.302Z,35.00
2023-02-11T06:20:23.239Z,36.70
2023-02-11T06:22:50.164Z,35.80
2023-02-11T06:25:17.308Z,39.40
2023-02-11T06:27:44.456Z,32.90
2023-02-11T06:30:11.940Z,37.60
2023-02-11T06:32:44.407Z,34.70
2023-02-11T06:35:13.664Z,36.50
2023-02-11T06:37:42.188Z,37.60
2023-02-11T06:40:10.510Z,38.10
2023-02-11T06:42:39.189Z,32.70
2023-02-11T06:45:09.050Z,33.00
2023-02-11T06:47:35.849Z,37.40
2023-02-11T06:50:05.867Z,34.00
2023-02-11T06:52:33.064Z,37.00
2023-02-11T06:55:00.050Z,37.20
2023-02-11T06:57:27.078Z,33.50
2023-02-11T06:59:53.860Z,33.50
2023-02-11T07:02:21.363Z,36.90
2023-02-11T07:04:48.944Z,32.70
2023-02-11T07:07:16.296Z,31.80
2023-02-11T07:09:43.693Z,33.30
2023-02-11T07:12:10.742Z,30.40
2023-02-11T07:14:37.797Z,31.90
2023-02-11T07:17:05.159Z,31.10
2023-02-11T07:19:31.914Z,31.10
2023-02-11T07:21:58.866Z,32.70
2023-02-11T07:24:25.833Z,31.50
2023-02-11T07:26:53.525Z,33.40
2023-02-11T07:29:20.478Z,35.50
2023-02-11T07:31:47.422Z,36.20
2023-02-11T07:34:15.023Z,35.30
2023-02-11T07:36:43.754Z,31.40
2023-02-11T07:39:10.590Z,32.10
2023-02-11T07:41:38.214Z,34.00
2023-02-11T07:44:05.680Z,35.70
2023-02-11T07:46:32.914Z,33.20
2023-02-11T07:49:00.331Z,35.10
2023-02-11T07:51:30.436Z,30.50
2023-02-11T07:53:59.550Z,33.10
2023-02-11T07:56:27.491Z,37.00
2023-02-11T07:58:54.858Z,37.00
2023-02-11T08:01:25.501Z,35.40
2023-02-11T08:03:52.713Z,31.10
2023-02-11T08:06:22.305Z,35.80
2023-02-11T08:08:49.661Z,28.70
2023-02-11T08:11:20.710Z,32.20
2023-02-11T08:13:48.105Z,30.50
2023-02-11T08:16:24.016Z,35.50
2023-02-11T08:18:51.691Z,37.20
2023-02-11T08:21:18.995Z,30.60
2023-02-11T08:23:46.241Z,35.80
2023-02-11T08:26:24.612Z,32.60
2023-02-11T08:28:53.485Z,36.20
2023-02-11T08:31:33.451Z,33.40
2023-02-11T08:34:02.306Z,33.00
2023-02-11T08:36:32.596Z,33.80
2023-02-11T08:39:17.379Z,36.10
2023-02-11T08:41:45.696Z,34.00
2023-02-11T08:44:13.084Z,33.60
2023-02-11T08:46:40.031Z,33.30
2023-02-11T08:49:06.913Z,31.70
2023-02-11T08:51:34.117Z,32.60
2023-02-11T08:54:01.210Z,35.70
2023-02-11T08:56:30.924Z,30.00
2023-02-11T08:58:57.845Z,31.20
2023-02-11T09:01:27.250Z,32.30
2023-02-11T09:03:54.654Z,33.40
2023-02-11T09:06:22.907Z,32.20
2023-02-11T09:08:52.110Z,30.00
2023-02-11T09:11:21.230Z,31.10
2023-02-11T09:13:48.440Z,32.80
2023-02-11T09:16:24.425Z,27.40
2023-02-11T09:18:51.818Z,31.10
2023-02-11T09:21:19.349Z,29.60
2023-02-11T09:23:47.907Z,27.10
2023-02-11T09:26:30.066Z,29.30
2023-02-11T09:28:57.814Z,25.90
2023-02-11T09:31:27.709Z,29.10
2023-02-11T09:33:57.355Z,29.40
2023-02-11T09:36:28.926Z,26.60
2023-02-11T09:38:58.465Z,25.60
2023-02-11T09:41:46.988Z,26.60
2023-02-11T09:44:34.439Z,30.80
2023-02-11T09:47:25.576Z,26.80
2023-02-11T09:50:05.536Z,28.00
2023-02-11T09:52:51.803Z,30.90
2023-02-11T09:55:21.472Z,28.60
2023-02-11T09:57:48.736Z,29.90
2023-02-11T10:00:38.405Z,28.70
2023-02-11T10:03:38.035Z,29.80
2023-02-11T10:06:13.201Z,27.30
2023-02-11T10:09:21.267Z,30.20
2023-02-11T10:12:09.361Z,27.90
2023-02-11T10:15:00.726Z,27.10
2023-02-11T10:17:34.536Z,26.40
2023-02-11T10:20:04.203Z,27.50
2023-02-11T10:22:47.667Z,28.00
2023-02-11T10:25:26.412Z,32.00
2023-02-11T10:27:56.119Z,27.50
2023-02-11T10:30:31.699Z,28.70
2023-02-11T10:33:12.376Z,22.60
2023-02-11T10:35:39.130Z,27.10
2023-02-11T10:38:05.974Z,26.20
2023-02-11T10:40:33.793Z,30.30
2023-02-11T10:43:08.336Z,29.80
2023-02-11T10:45:43.262Z,27.60
2023-02-11T10:48:40.028Z,27.30
2023-02-11T10:51:26.593Z,25.50
2023-02-11T10:54:21.178Z,28.40
2023-02-11T10:56:59.483Z,28.50
2023-02-11T10:59:31.326Z,24.30
2023-02-11T11:02:02.134Z,25.60
2023-02-11T11:04:44.079Z,28.40
2023-02-11T11:07:16.885Z,29.70
2023-02-11T11:09:51.813Z,29.60
2023-02-11T11:12:27.327Z,26.50
2023-02-11T11:15:13.761Z,24.70
2023-02-11T11:17:40.610Z,27.70
2023-02-11T11:20:25.028Z,27.40
2023-02-11T11:23:07.458Z,28.00
2023-02-11T11:25:38.458Z,27.50
2023-02-11T11:28:05.604Z,31.30
2023-02-11T11:30:41.395Z,29.50
2023-02-11T11:33:21.305Z,27.20
2023-02-11T11:36:01.480Z,25.40
2023-02-11T11:38:30.262Z,26.80
2023-02-11T11:41:15.614Z,25.30
2023-02-11T11:43:55.229Z,29.80
2023-02-11T11:46:34.494Z,27.80
2023-02-11T11:49:28.311Z,29.30
2023-02-11T11:52:35.509Z,27.60
2023-02-11T11:55:25.626Z,25.10
2023-02-11T11:57:52.811Z,28.60
2023-02-11T12:00:41.604Z,25.20
2023-02-11T12:03:48.767Z,24.30
2023-02-11T12:06:26.715Z,25.10
2023-02-11T12:09:11.511Z,22.70
2023-02-11T12:12:06.462Z,23.40
2023-02-11T12:14:54.279Z,26.80
2023-02-11T12:17:37.679Z,25.90
2023-02-11T12:20:23.728Z,26.80
2023-02-11T12:23:10.390Z,27.60
2023-02-11T12:25:39.700Z,23.60
2023-02-11T12:28:22.629Z,26.70
2023-02-11T12:31:12.085Z,25.60
2023-02-11T12:33:58.247Z,24.70
2023-02-11T12:36:43.729Z,24.40
2023-02-11T12:39:34.311Z,27.00
2023-02-11T12:42:57.653Z,25.80
2023-02-11T12:45:49.694Z,24.70
2023-02-11T12:48:27.807Z,28.70
2023-02-11T12:51:09.405Z,26.10
2023-02-11T12:53:56.928Z,24.80
2023-02-11T12:56:38.779Z,27.40
2023-02-11T12:59:14.365Z,29.30
2023-02-11T13:01:44.681Z,27.20
2023-02-11T13:04:33.476Z,23.80
2023-02-11T13:07:05.572Z,25.90
2023-02-11T13:09:51.338Z,27.60
2023-02-11T13:12:36.837Z,27.00
2023-02-11T13:15:08.032Z,25.60
2023-02-11T13:17:50.053Z,27.50
2023-02-11T13:20:40.436Z,30.80
2023-02-11T13:23:34.847Z,32.00
2023-02-11T13:26:24.666Z,29.30
2023-02-11T13:29:15.946Z,29.60
2023-02-11T13:31:43.008Z,30.80
2023-02-11T13:34:45.008Z,29.90
2023-02-11T13:37:33.606Z,30.30
2023-02-11T13:40:02.664Z,31.50
2023-02-11T13:42:30.802Z,30.90
2023-02-11T13:44:57.844Z,31.60
2023-02-11T13:47:34.965Z,29.10
2023-02-11T13:50:06.339Z,35.90
2023-02-11T13:52:37.689Z,34.90
2023-02-11T13:55:24.162Z,29.90
2023-02-11T13:58:29.361Z,29.70
2023-02-11T14:00:56.808Z,27.30
2023-02-11T14:03:48.654Z,30.10
2023-02-11T14:06:39.523Z,30.40
2023-02-11T14:09:36.614Z,28.90
2023-02-11T14:12:26.138Z,31.80
2023-02-11T14:15:25.015Z,28.90
2023-02-11T14:17:52.590Z,30.00
2023-02-11T14:20:36.464Z,26.90
2023-02-11T14:23:04.799Z,28.20
2023-02-11T14:25:32.100Z,28.50
2023-02-11T14:28:23.349Z,25.90
2023-02-11T14:31:13.016Z,29.00
2023-02-11T14:33:59.324Z,28.90
2023-02-11T14:36:49.951Z,26.40
2023-02-11T14:39:28.296Z,30.60
2023-02-11T14:41:55.753Z,27.10
2023-02-11T14:44:27.080Z,28.20
2023-02-11T14:46:55.167Z,33.00
2023-02-11T14:49:37.269Z,29.20
2023-02-11T14:52:31.889Z,30.60
2023-02-11T14:55:17.690Z,31.10
2023-02-11T14:57:45.713Z,27.60
2023-02-11T15:00:23.121Z,30.90
2023-02-11T15:02:50.044Z,27.80
2023-02-11T15:05:22.644Z,31.90
2023-02-11T15:07:56.632Z,31.10
2023-02-11T15:10:41.695Z,30.90
2023-02-11T15:13:14.825Z,30.60
2023-02-11T15:15:41.670Z,27.00
2023-02-11T15:18:10.391Z,33.30
2023-02-11T15:20:37.163Z,29.80
2023-02-11T15:23:09.252Z,29.90
2023-02-11T15:25:43.464Z,33.60
2023-02-11T15:28:26.532Z,32.00
2023-02-11T15:31:13.519Z,33.70
2023-02-11T15:33:40.568Z,33.20
2023-02-11T15:36:11.233Z,34.40
2023-02-11T15:38:38.190Z,33.80
2023-02-11T15:41:07.560Z,34.90
2023-02-11T15:44:03.586Z,35.40
2023-02-11T15:46:38.497Z,30.20
2023-02-11T15:49:06.472Z,36.80
2023-02-11T15:51:39.954Z,35.50
2023-02-11T15:54:20.064Z,34.20
2023-02-11T15:56:50.854Z,35.90
2023-02-11T15:59:25.858Z,27.00
2023-02-11T16:01:54.495Z,29.40
2023-02-11T16:04:26.545Z,31.50
2023-02-11T16:06:54.721Z,32.80
2023-02-11T16:09:36.273Z,33.80
2023-02-11T16:12:30.054Z,33.80
2023-02-11T16:14:59.861Z,32.00
2023-02-11T16:17:29.450Z,33.50
2023-02-11T16:19:56.421Z,31.70
2023-02-11T16:22:27.659Z,36.80
2023-02-11T16:24:56.940Z,44.40
2023-02-11T16:27:30.529Z,35.10
2023-02-11T16:29:58.445Z,40.90
2023-02-11T16:32:27.960Z,37.10
2023-02-11T16:34:57.898Z,34.30
2023-02-11T16:37:25.837Z,37.90
2023-02-11T16:39:57.065Z,38.00
2023-02-11T16:42:24.391Z,38.60
2023-02-11T16:44:51.337Z,38.00
2023-02-11T16:47:26.532Z,33.70
2023-02-11T16:49:54.312Z,37.50
2023-02-11T16:52:21.911Z,41.20
2023-02-11T16:54:48.968Z,38.50
2023-02-11T16:57:21.283Z,32.50
2023-02-11T16:59:48.775Z,37.60
2023-02-11T17:02:35.032Z,38.90
2023-02-11T17:05:04.572Z,36.80
2023-02-11T17:07:31.957Z,38.10
2023-02-11T17:09:58.963Z,37.90
2023-02-11T17:12:26.258Z,32.30
2023-02-11T17:14:53.961Z,35.50
2023-02-11T17:17:23.496Z,35.10
2023-02-11T17:19:51.088Z,32.90
2023-02-11T17:22:18.691Z,36.70
2023-02-11T17:24:46.093Z,33.40
2023-02-11T17:27:13.682Z,32.20
2023-02-11T17:29:40.878Z,32.80
2023-02-11T17:32:07.734Z,32.80
2023-02-11T17:34:34.750Z,33.50
2023-02-11T17:37:08.572Z,34.10
2023-02-11T17:39:36.527Z,36.50
2023-02-11T17:42:04.427Z,34.10
2023-02-11T17:44:31.059Z,32.50
2023-02-11T17:46:58.007Z,33.40
2023-02-11T17:49:25.152Z,30.00
2023-02-11T17:51:52.169Z,35.40
2023-02-11T17:54:20.111Z,32.60
2023-02-11T17:56:49.283Z,35.90
2023-02-11T17:59:17.228Z,29.50
2023-02-11T18:01:43.829Z,32.40
2023-02-11T18:04:13.644Z,34.80
2023-02-11T18:06:40.883Z,34.80
2023-02-11T18:09:07.948Z,31.60
2023-02-11T18:11:37.559Z,33.90
2023-02-11T18:14:07.627Z,31.00
2023-02-11T18:16:36.615Z,34.60
2023-02-11T18:19:03.703Z,34.90
2023-02-11T18:21:30.680Z,32.70
2023-02-11T18:23:57.668Z,30.20
2023-02-11T18:26:28.141Z,26.90
2023-02-11T18:28:57.634Z,29.90
2023-02-11T18:31:25.785Z,31.00
2023-02-11T18:33:53.210Z,30.00
2023-02-11T18:36:21.035Z,29.90
2023-02-11T18:38:47.926Z,32.80
2023-02-11T18:41:15.215Z,32.30
2023-02-11T18:43:43.077Z,31.90
2023-02-11T18:46:11.939Z,29.60
2023-02-11T18:48:38.824Z,27.10
2023-02-11T18:51:14.670Z,23.60
2023-02-11T18:53:42.145Z,29.40
2023-02-11T18:56:14.260Z,24.70
2023-02-11T18:58:41.007Z,27.10
2023-02-11T19:01:14.996Z,29.00
2023-02-11T19:03:42.156Z,20.90
2023-02-11T19:06:14.662Z,26.70
2023-02-11T19:08:41.657Z,23.60
2023-02-11T19:11:08.786Z,23.70
2023-02-11T19:13:35.252Z,23.60
2023-02-11T19:16:07.751Z,26.10
2023-02-11T19:18:36.398Z,24.00
2023-02-11T19:21:10.563Z,25.60
2023-02-11T19:23:37.650Z,24.20
2023-02-11T19:26:06.452Z,26.40
2023-02-11T19:28:34.109Z,28.20
2023-02-11T19:31:09.673Z,26.00
2023-02-11T19:33:36.861Z,24.90
2023-02-11T19:36:07.730Z,26.50
2023-02-11T19:38:35.638Z,24.50
2023-02-11T19:41:02.766Z,25.60
2023-02-11T19:43:29.355Z,27.80
2023-02-11T19:45:57.390Z,25.40
2023-02-11T19:48:24.873Z,26.40
2023-02-11T19:50:51.654Z,26.10
2023-02-11T19:53:18.693Z,25.90
2023-02-11T19:55:45.525Z,28.30
2023-02-11T19:58:12.430Z,28.00
2023-02-11T20:00:39.379Z,27.40
2023-02-11T20:03:05.914Z,25.70
2023-02-11T20:05:32.661Z,28.10
2023-02-11T20:07:59.617Z,28.00
2023-02-11T20:10:26.717Z,27.80
2023-02-11T20:12:53.390Z,29.00
2023-02-11T20:15:20.142Z,29.50
2023-02-11T20:17:47.151Z,28.90
2023-02-11T20:20:14.290Z,27.80
2023-02-11T20:22:40.920Z,26.20
2023-02-11T20:25:07.900Z,29.60
2023-02-11T20:27:34.636Z,30.80
2023-02-11T20:30:01.793Z,26.30
2023-02-11T20:32:30.593Z,30.20
2023-02-11T20:34:58.881Z,32.20
2023-02-11T20:37:25.542Z,30.00
2023-02-11T20:39:52.394Z,31.10
2023-02-11T20:42:19.306Z,29.20
2023-02-11T20:44:46.192Z,30.00
2023-02-11T20:47:13.474Z,31.30
2023-02-11T20:49:40.040Z,36.40
2023-02-11T20:52:08.194Z,32.20
2023-02-11T20:54:35.038Z,32.40
2023-02-11T20:57:02.423Z,28.30
2023-02-11T20:59:29.155Z,30.60
2023-02-11T21:01:57.160Z,28.40
2023-02-11T21:04:29.423Z,34.00
2023-02-11T21:06:58.513Z,36.60
2023-02-11T21:09:27.618Z,37.00
2023-02-11T21:11:55.237Z,35.00
2023-02-11T21:14:23.968Z,34.20
2023-02-11T21:16:51.075Z,35.30
2023-02-11T21:19:18.278Z,34.30
2023-02-11T21:21:45.451Z,34.90
2023-02-11T21:24:12.675Z,39.80
2023-02-11T21:26:39.461Z,34.60
2023-02-11T21:29:07.372Z,37.90
2023-02-11T21:31:34.950Z,32.30
2023-02-11T21:34:02.447Z,38.20
2023-02-11T21:36:29.985Z,31.30
2023-02-11T21:38:56.958Z,36.60
2023-02-11T21:41:24.764Z,34.10
2023-02-11T21:43:51.870Z,33.90
2023-02-11T21:46:19.007Z,32.30
2023-02-11T21:48:45.714Z,32.20
2023-02-11T21:51:20.578Z,32.50
2023-02-11T21:53:47.334Z,34.30
2023-02-11T21:56:16.621Z,27.10
2023-02-11T21:58:43.820Z,28.00
2023-02-11T22:01:16.710Z,33.20
2023-02-11T22:03:44.205Z,29.20
2023-02-11T22:06:13.276Z,27.40
2023-02-11T22:08:40.224Z,27.50
2023-02-11T22:11:10.044Z,23.90
2023-02-11T22:13:37.275Z,25.00
2023-02-11T22:16:06.229Z,26.10
2023-02-11T22:18:33.060Z,25.00
2023-02-11T22:21:01.744Z,25.10
2023-02-11T22:23:29.415Z,27.40
2023-02-11T22:25:57.337Z,25.30
2023-02-11T22:28:27.624Z,28.00
2023-02-11T22:30:57.988Z,24.40
2023-02-11T22:33:26.371Z,31.30
2023-02-11T22:36:05.562Z,30.40
2023-02-11T22:38:33.229Z,22.70
2023-02-11T22:41:05.111Z,27.80
2023-02-11T22:43:31.750Z,22.90
2023-02-11T22:46:03.154Z,25.60
2023-02-11T22:48:30.089Z,24.30
2023-02-11T22:50:56.920Z,27.90
2023-02-11T22:53:27.314Z,26.50
2023-02-11T22:55:54.700Z,24.20
2023-02-11T22:58:22.254Z,22.90
2023-02-11T23:00:49.207Z,28.10
2023-02-11T23:03:16.012Z,31.60
2023-02-11T23:05:42.886Z,26.40
2023-02-11T23:08:10.905Z,23.60
2023-02-11T23:10:39.219Z,27.70
2023-02-11T23:13:07.510Z,30.90
2023-02-11T23:15:34.528Z,25.40
2023-02-11T23:18:01.664Z,26.30
2023-02-11T23:20:28.874Z,23.10
2023-02-11T23:22:55.645Z,22.60
2023-02-11T23:25:22.241Z,24.00
2023-02-11T23:27:48.992Z,24.70
2023-02-11T23:30:16.166Z,22.80
2023-02-11T23:32:43.152Z,25.10
2023-02-11T23:35:10.129Z,25.40
2023-02-11T23:37:37.053Z,28.00
2023-02-11T23:40:04.289Z,24.50
2023-02-11T23:42:31.210Z,29.30
2023-02-11T23:44:58.101Z,36.50
2023-02-11T23:47:25.055Z,23.40
2023-02-11T23:49:51.790Z,29.20
2023-02-11T23:52:18.711Z,27.70
2023-02-11T23:54:48.135Z,29.50
2023-02-11T23:57:15.129Z,27.70
2023-02-11T23:59:43.166Z,26.30
